Time;durP1;ratioP1;P1;durP2;ratioP2;P2;SDS_P1;SDS_P2;PMS_P1;PMS_P2;Temp;Humidity;BMP_temperature;BMP_pressure;BME280_temperature;BME280_humidity;BME280_pressure;Samples;Min_cycle;Max_cycle;Signal;HPM_P1;HPM_P2
2021/09/27 00:00:35;;;;;;;26.88;12.55;;;;;;;19.77;90.65;98985.34;5133378;28;20140;-94
2021/09/27 00:03:01;;;;;;;25.50;10.95;;;;;;;19.73;90.27;98973.00;5127684;27;20127;-94
2021/09/27 00:05:28;;;;;;;29.48;10.95;;;;;;;19.79;90.93;98989.66;5128790;28;20069;-94
2021/09/27 00:07:54;;;;;;;26.80;10.85;;;;;;;19.73;91.24;98970.28;5122119;28;20057;-94
2021/09/27 00:10:23;;;;;;;27.10;12.02;;;;;;;19.91;91.02;99001.56;5122375;28;20044;-95
2021/09/27 00:12:50;;;;;;;21.48;11.48;;;;;;;19.96;91.60;99006.66;5124141;28;20044;-95
2021/09/27 00:15:21;;;;;;;25.77;11.07;;;;;;;19.77;90.72;98969.16;5126731;28;20408;-95
2021/09/27 00:17:49;;;;;;;25.50;11.43;;;;;;;19.72;91.06;98966.75;5130630;28;20039;-94
2021/09/27 00:20:15;;;;;;;22.52;11.90;;;;;;;19.79;92.40;98970.78;5131723;28;20051;-94
2021/09/27 00:22:41;;;;;;;27.85;12.35;;;;;;;19.80;91.59;98961.75;5131939;27;20086;-95
2021/09/27 00:25:09;;;;;;;24.67;12.40;;;;;;;19.88;92.22;98974.75;5124990;28;20456;-95
2021/09/27 00:27:35;;;;;;;29.67;11.82;;;;;;;19.99;91.48;98976.78;5130228;28;20122;-94
2021/09/27 00:30:04;;;;;;;22.92;11.30;;;;;;;20.05;91.12;98979.97;5126276;28;20107;-94
2021/09/27 00:32:30;;;;;;;21.42;11.68;;;;;;;20.07;91.55;98975.34;5129665;27;20479;-94
2021/09/27 00:34:58;;;;;;;27.20;12.52;;;;;;;19.99;91.56;98950.66;5125868;28;20058;-95
2021/09/27 00:37:24;;;;;;;25.70;11.60;;;;;;;20.16;91.61;98968.47;5141371;27;20051;-95
2021/09/27 00:39:50;;;;;;;26.85;11.93;;;;;;;20.11;91.25;98951.72;5130480;27;20039;-95
2021/09/27 00:42:16;;;;;;;26.15;12.02;;;;;;;20.19;90.85;98954.81;5128988;27;20048;-94
2021/09/27 00:44:42;;;;;;;20.20;11.65;;;;;;;20.23;90.87;98960.88;5129820;27;20075;-93
2021/09/27 00:47:08;;;;;;;35.15;12.40;;;;;;;20.22;90.86;98951.03;5135831;27;20160;-94
2021/09/27 00:49:35;;;;;;;24.25;11.20;;;;;;;20.17;90.66;98936.94;5127333;27;20149;-95
2021/09/27 00:52:03;;;;;;;31.55;12.77;;;;;;;20.16;91.10;98941.47;5126664;28;20050;-95
2021/09/27 00:54:33;;;;;;;26.58;11.88;;;;;;;20.21;90.93;98947.47;5127761;27;20028;-96
2021/09/27 00:57:05;;;;;;;23.05;11.25;;;;;;;20.17;91.03;98937.84;5126130;28;20370;-95
2021/09/27 00:59:34;;;;;;;27.95;11.70;;;;;;;20.23;90.92;98940.16;5126438;28;20054;-93
2021/09/27 01:02:00;;;;;;;22.73;10.55;;;;;;;20.16;90.36;98944.19;5128977;27;20114;-95
2021/09/27 01:04:26;;;;;;;24.73;12.25;;;;;;;20.21;90.56;98960.09;5127458;27;20048;-93
2021/09/27 01:07:15;;;;;;;29.35;11.25;;;;;;;20.05;90.67;98936.75;5133611;27;20051;-93
2021/09/27 01:09:48;;;;;;;;;;;;;;;20.26;91.38;98968.78;5119623;27;20104;-95
2021/09/27 01:12:55;;;;;;;28.52;12.15;;;;;;;20.18;91.63;98950.34;5133821;27;19931;-95
2021/09/27 01:15:29;;;;;;;30.30;11.77;;;;;;;20.23;90.94;98950.94;5129502;27;20071;-95
2021/09/27 01:18:07;;;;;;;31.10;11.65;;;;;;;20.24;90.63;98946.41;5128057;27;20047;-96
2021/09/27 01:20:58;;;;;;;27.77;11.50;;;;;;;20.23;90.71;98939.25;5125904;28;20047;-94
2021/09/27 01:24:04;;;;;;;29.40;10.88;;;;;;;20.40;90.27;98955.25;5109811;27;20143;-94
2021/09/27 01:26:50;;;;;;;31.35;11.45;;;;;;;20.31;90.16;98932.41;5114630;27;20069;-94
2021/09/27 01:29:50;;;;;;;29.88;11.75;;;;;;;20.33;90.15;98926.06;5125547;27;20062;-92
2021/09/27 01:32:38;;;;;;;29.65;11.55;;;;;;;20.34;89.66;98927.75;5124834;27;20093;-95
2021/09/27 01:35:25;;;;;;;27.85;11.55;;;;;;;20.42;89.65;98941.66;5122432;27;20047;-95
2021/09/27 01:38:09;;;;;;;25.52;10.82;;;;;;;20.34;89.76;98931.31;5124149;28;20044;-94
2021/09/27 01:40:51;;;;;;;31.30;11.68;;;;;;;20.37;89.66;98949.19;5126193;27;20092;-93
2021/09/27 01:43:24;;;;;;;24.67;10.98;;;;;;;20.22;89.98;98934.84;5123262;28;20054;-94
2021/09/27 01:46:00;;;;;;;22.98;11.10;;;;;;;20.15;90.51;98945.16;5129791;27;20054;-96
2021/09/27 01:48:34;;;;;;;29.48;11.05;;;;;;;19.93;91.71;98918.66;5143366;27;20400;-94
2021/09/27 01:51:06;;;;;;;33.80;12.60;;;;;;;20.02;92.25;98931.56;5124117;28;20055;-94
2021/09/27 01:53:37;;;;;;;33.40;12.57;;;;;;;20.08;92.12;98936.59;5126784;27;20048;-94
2021/09/27 01:56:09;;;;;;;21.17;10.88;;;;;;;20.00;92.27;98925.41;5123357;27;20043;-94
2021/09/27 01:58:45;;;;;;;26.50;11.68;;;;;;;20.14;92.04;98932.63;5124225;28;20054;-95
2021/09/27 02:01:24;;;;;;;25.63;12.95;;;;;;;20.10;92.56;98914.88;5129446;27;20095;-93
2021/09/27 02:03:57;;;;;;;28.00;11.70;;;;;;;20.30;91.80;98944.19;5124595;28;20126;-95
2021/09/27 02:06:27;;;;;;;26.02;12.43;;;;;;;20.13;91.50;98914.69;5132015;27;20039;-93
2021/09/27 02:09:04;;;;;;;29.88;11.80;;;;;;;20.15;92.22;98918.16;5141967;27;20043;-96
2021/09/27 02:11:33;;;;;;;27.95;12.38;;;;;;;20.24;92.00;98922.09;5135327;27;20370;-95
2021/09/27 02:17:19;;;;;;;26.35;12.35;;;;;;;20.14;91.98;98913.72;5118159;27;20377;-95
2021/09/27 02:20:03;;;;;;;35.05;12.82;;;;;;;20.10;92.99;98912.16;5118952;28;20056;-95
2021/09/27 02:22:33;;;;;;;29.50;11.75;;;;;;;20.10;92.84;98906.78;5113893;28;20051;-96
2021/09/27 02:25:08;;;;;;;27.60;12.55;;;;;;;20.16;93.17;98914.47;5118566;28;20042;-96
2021/09/27 02:27:34;;;;;;;30.75;13.23;;;;;;;20.22;92.79;98919.50;5113277;28;20051;-94
2021/09/27 02:30:04;;;;;;;35.80;12.77;;;;;;;20.12;92.75;98902.13;5120705;28;20044;-94
2021/09/27 02:32:38;;;;;;;29.02;12.93;;;;;;;20.26;92.69;98925.56;5120363;28;20044;-95
2021/09/27 02:35:11;;;;;;;24.17;12.98;;;;;;;20.11;92.88;98900.44;5119547;28;20054;-95
2021/09/27 02:37:42;;;;;;;32.80;14.48;;;;;;;20.15;93.08;98918.16;5118450;28;20043;-94
2021/09/27 02:40:16;;;;;;;37.28;12.80;;;;;;;20.14;92.82;98910.16;5119304;28;20046;-95
2021/09/27 02:42:47;;;;;;;24.58;12.23;;;;;;;20.28;92.20;98929.06;5119170;28;20040;-94
2021/09/27 02:45:15;;;;;;;28.02;12.95;;;;;;;20.24;92.75;98936.47;5117636;28;20519;-95
2021/09/27 02:47:46;;;;;;;24.88;11.98;;;;;;;20.18;93.55;98928.75;5118588;28;20388;-95
2021/09/27 02:50:15;;;;;;;29.00;12.68;;;;;;;20.17;93.73;98921.63;5118362;28;20051;-94
2021/09/27 02:52:41;;;;;;;26.13;12.48;;;;;;;20.28;93.12;98924.50;5118851;28;20089;-94
2021/09/27 02:55:12;;;;;;;32.33;13.02;;;;;;;20.39;93.02;98925.66;5117872;28;20037;-94
2021/09/27 02:58:04;;;;;;;31.48;13.00;;;;;;;20.41;92.64;98919.19;5118995;28;20048;-95
2021/09/27 03:00:41;;;;;;;30.23;13.00;;;;;;;20.37;92.29;98922.19;5115746;28;20040;-93
2021/09/27 03:03:14;;;;;;;27.50;12.35;;;;;;;20.40;92.69;98921.97;5116940;28;20451;-96
2021/09/27 03:05:52;;;;;;;32.83;12.88;;;;;;;20.38;92.73;98910.41;5116692;28;20047;-95
2021/09/27 03:08:37;;;;;;;30.58;12.15;;;;;;;20.38;92.38;98907.69;5109969;28;20152;-94
2021/09/27 03:11:29;;;;;;;25.02;11.40;;;;;;;20.51;92.92;98939.22;5117376;28;20542;-94
2021/09/27 03:14:07;;;;;;;24.27;11.23;;;;;;;20.36;92.61;98905.09;5118511;28;20117;-95
2021/09/27 03:16:49;;;;;;;27.10;12.45;;;;;;;20.38;92.97;98908.56;5103163;28;20040;-96
2021/09/27 03:19:40;;;;;;;30.95;13.20;;;;;;;20.29;93.12;98896.53;5117510;28;20073;-94
2021/09/27 03:22:16;;;;;;;31.25;13.13;;;;;;;20.36;93.42;98901.53;5117374;28;20054;-95
2021/09/27 03:24:56;;;;;;;28.33;12.50;;;;;;;20.41;93.59;98911.09;5118002;28;20032;-94
2021/09/27 03:27:34;;;;;;;29.65;12.63;;;;;;;20.42;93.62;98906.53;5109709;28;20044;-94
2021/09/27 03:30:10;;;;;;;25.40;12.40;;;;;;;20.35;93.68;98891.72;5104825;28;20047;-93
2021/09/27 03:32:51;;;;;;;30.02;12.43;;;;;;;20.38;93.50;98899.59;5103529;28;20050;-96
2021/09/27 03:35:26;;;;;;;26.83;12.77;;;;;;;20.51;93.95;98930.25;5086168;28;20143;-94
2021/09/27 03:38:00;;;;;;;34.35;13.63;;;;;;;20.36;94.32;98893.44;5104753;28;20048;-94
2021/09/27 03:40:39;;;;;;;29.00;13.00;;;;;;;20.45;94.07;98912.63;5105306;28;20044;-94
2021/09/27 03:43:15;;;;;;;26.23;12.68;;;;;;;20.36;93.99;98896.97;5105104;28;20079;-95
2021/09/27 03:45:51;;;;;;;25.92;12.88;;;;;;;20.45;94.03;98909.03;5105739;28;20113;-95
2021/09/27 03:48:23;;;;;;;30.02;12.48;;;;;;;20.49;94.17;98914.16;5104616;28;20032;-94
2021/09/27 03:51:00;;;;;;;32.10;13.65;;;;;;;20.45;93.72;98904.50;5105573;28;20048;-95
2021/09/27 03:53:32;;;;;;;30.70;12.88;;;;;;;20.47;93.72;98912.50;5105609;28;20047;-95
2021/09/27 03:56:06;;;;;;;25.10;13.02;;;;;;;20.34;94.00;98898.91;5106004;28;20101;-95
2021/09/27 03:58:37;;;;;;;30.70;13.32;;;;;;;20.33;94.16;98901.75;5106648;28;20048;-94
2021/09/27 04:01:08;;;;;;;29.75;12.70;;;;;;;20.40;94.04;98913.88;5105637;28;20040;-95
2021/09/27 04:04:07;;;;;;;29.35;13.00;;;;;;;20.33;94.06;98904.44;5106616;28;20201;-95
2021/09/27 04:07:00;;;;;;;28.67;13.25;;;;;;;20.37;93.87;98911.38;5105121;28;20051;-94
2021/09/27 04:09:34;;;;;;;26.88;12.63;;;;;;;20.36;93.94;98912.34;5101874;28;20066;-93
2021/09/27 04:12:09;;;;;;;29.17;12.63;;;;;;;20.25;94.18;98905.78;5096717;28;20066;-95
2021/09/27 04:14:43;;;;;;;32.28;13.05;;;;;;;20.29;94.99;98906.47;5104663;28;20048;-95
2021/09/27 04:17:20;;;;;;;33.55;13.93;;;;;;;20.38;94.23;98919.34;5103387;28;20063;-94
2021/09/27 04:19:54;;;;;;;29.52;12.65;;;;;;;20.34;94.21;98901.63;5101776;28;20423;-93
2021/09/27 04:22:27;;;;;;;33.35;13.68;;;;;;;20.39;94.09;98898.66;5104570;28;20044;-95
2021/09/27 04:25:04;;;;;;;28.60;12.27;;;;;;;20.45;93.96;98906.31;5105133;28;20109;-95
2021/09/27 04:27:47;;;;;;;26.83;12.15;;;;;;;20.45;93.86;98903.63;5104417;28;20036;-93
2021/09/27 04:30:36;;;;;;;29.77;13.48;;;;;;;20.48;93.29;98898.03;5103676;28;20044;-95
2021/09/27 04:33:22;;;;;;;28.00;12.57;;;;;;;20.58;93.47;98911.81;5104146;28;20036;-95
2021/09/27 04:35:56;;;;;;;35.72;14.38;;;;;;;20.53;93.46;98906.69;5104278;28;20059;-94
2021/09/27 04:38:26;;;;;;;32.70;13.18;;;;;;;20.63;93.54;98924.06;5102724;28;20093;-94
2021/09/27 04:41:09;;;;;;;32.13;13.73;;;;;;;20.48;93.64;98908.84;5104623;28;20061;-95
2021/09/27 04:43:44;;;;;;;30.08;12.18;;;;;;;20.44;93.98;98905.47;5105575;28;20040;-95
2021/09/27 04:46:18;;;;;;;27.35;13.05;;;;;;;20.39;93.74;98904.06;5104323;28;20044;-96
2021/09/27 04:49:00;;;;;;;33.25;13.57;;;;;;;20.33;94.05;98899.03;5103466;28;20042;-95
2021/09/27 04:51:47;;;;;;;29.75;12.85;;;;;;;20.33;94.25;98907.13;5103551;28;20096;-95
2021/09/27 04:54:43;;;;;;;27.92;12.73;;;;;;;20.25;94.88;98905.78;5104726;28;20047;-96
2021/09/27 04:57:25;;;;;;;37.13;13.70;;;;;;;20.39;94.90;98929.22;5094871;28;20040;-94
2021/09/27 05:00:04;;;;;;;36.58;13.82;;;;;;;20.34;95.17;98922.38;5103539;28;20078;-96
2021/09/27 05:02:42;;;;;;;30.30;13.50;;;;;;;20.25;94.76;98905.78;5104645;28;20131;-94
2021/09/27 05:05:13;;;;;;;;;;;;;;;20.39;95.10;98928.34;5104795;28;20043;-93
2021/09/27 05:08:08;;;;;;;31.38;12.55;;;;;;;20.37;95.34;98925.75;5102879;28;19916;-94
2021/09/27 05:10:53;;;;;;;31.48;13.82;;;;;;;20.31;94.79;98907.22;5101258;28;20032;-94
2021/09/27 05:14:01;;;;;;;28.67;12.93;;;;;;;20.31;94.93;98905.38;5098216;28;20068;-94
2021/09/27 05:16:47;;;;;;;32.87;12.93;;;;;;;20.25;94.81;98892.28;5098332;28;20044;-94
2021/09/27 05:19:35;;;;;;;28.85;14.25;;;;;;;20.24;94.44;98895.09;5094803;28;20040;-95
2021/09/27 05:22:27;;;;;;;26.75;12.45;;;;;;;20.28;95.14;98904.75;5096395;28;20048;-95
2021/09/27 05:25:47;;;;;;;24.10;12.52;;;;;;;20.16;95.77;98895.59;5088449;28;20040;-94
2021/09/27 05:28:34;;;;;;;30.02;13.20;;;;;;;20.09;95.46;98899.66;5093531;28;20036;-93
2021/09/27 05:31:12;;;;;;;28.70;13.40;;;;;;;20.08;96.45;98909.59;5082933;28;20044;-92
2021/09/27 05:33:51;;;;;;;28.75;12.90;;;;;;;20.13;96.09;98917.41;5102469;28;20077;-95
2021/09/27 05:36:29;;;;;;;30.02;13.07;;;;;;;20.12;96.21;98912.94;5097081;28;20085;-94
2021/09/27 05:39:10;;;;;;;29.13;13.15;;;;;;;20.16;95.95;98905.53;5095817;28;20366;-94
2021/09/27 05:41:53;;;;;;;37.95;13.88;;;;;;;20.25;95.58;98921.13;5096200;28;20036;-92
2021/09/27 05:44:33;;;;;;;37.72;14.57;;;;;;;20.09;95.53;98905.91;5096208;28;20072;-95
2021/09/27 05:47:11;;;;;;;26.98;14.48;;;;;;;20.04;95.67;98901.78;5096979;28;20093;-91
2021/09/27 05:49:51;;;;;;;31.08;13.48;;;;;;;20.12;96.17;98918.34;5092988;28;20040;-93
2021/09/27 05:52:26;;;;;;;26.55;13.68;;;;;;;20.22;96.13;98915.94;5098013;28;20032;-91
2021/09/27 05:55:00;;;;;;;36.47;13.38;;;;;;;20.30;95.28;98916.31;5095798;28;20078;-94
2021/09/27 05:57:39;;;;;;;35.42;13.02;;;;;;;20.42;94.23;98922.75;5097046;28;20036;-94
2021/09/27 06:00:11;;;;;;;27.52;13.23;;;;;;;20.51;93.54;98919.44;5090737;28;20036;-93
2021/09/27 06:02:56;;;;;;;31.55;12.70;;;;;;;20.62;92.35;98914.22;5096418;28;20048;-92
2021/09/27 06:05:27;;;;;;;30.23;13.07;;;;;;;20.78;92.09;98926.75;5093563;28;20048;-92
2021/09/27 06:08:02;;;;;;;27.40;13.98;;;;;;;20.78;91.72;98919.50;5093171;28;20123;-93
2021/09/27 06:10:33;;;;;;;27.05;13.27;;;;;;;20.84;91.56;98931.72;5094157;28;20038;-93
2021/09/27 06:13:09;;;;;;;25.58;12.85;;;;;;;20.87;91.47;98932.38;5093499;28;20055;-92
2021/09/27 06:15:45;;;;;;;25.40;12.45;;;;;;;20.88;91.33;98938.66;5091537;28;20055;-91
2021/09/27 06:18:25;;;;;;;26.02;12.73;;;;;;;20.92;90.67;98934.78;5095810;28;20044;-96
2021/09/27 06:21:02;;;;;;;28.20;12.45;;;;;;;20.97;90.81;98932.66;5095821;28;20040;-92
2021/09/27 06:23:51;;;;;;;33.08;12.60;;;;;;;20.98;89.66;98906.47;5082409;28;20045;-93
2021/09/27 06:26:22;;;;;;;26.77;12.05;;;;;;;21.15;89.09;98913.44;5097933;28;20044;-94
2021/09/27 06:28:59;;;;;;;24.75;12.35;;;;;;;21.33;89.14;98912.16;5086101;28;20040;-96
2021/09/27 06:31:32;;;;;;;28.88;12.63;;;;;;;21.54;87.50;98921.53;5102549;28;20135;-94
2021/09/27 06:34:06;;;;;;;25.02;12.00;;;;;;;21.66;86.15;98905.41;5102240;28;20078;-93
2021/09/27 06:36:33;;;;;;;27.15;12.43;;;;;;;21.88;85.08;98939.94;5103219;28;20040;-94
2021/09/27 06:39:05;;;;;;;27.65;11.85;;;;;;;21.84;84.76;98912.25;5103646;28;20065;-96
2021/09/27 06:41:35;;;;;;;30.55;12.60;;;;;;;21.86;84.00;98912.09;5103554;28;20054;-94
2021/09/27 06:44:02;;;;;;;26.02;12.70;;;;;;;22.02;83.92;98917.31;5103690;28;20089;-94
2021/09/27 06:46:29;;;;;;;29.10;11.45;;;;;;;22.41;81.98;98927.13;5103343;28;20033;-94
2021/09/27 06:48:55;;;;;;;29.60;12.70;;;;;;;22.51;80.89;98917.34;5103308;28;20044;-95
2021/09/27 06:51:21;;;;;;;23.80;11.57;;;;;;;22.41;81.28;98910.88;5102806;28;20131;-95
2021/09/27 06:53:47;;;;;;;28.20;11.70;;;;;;;22.22;81.80;98915.88;5101133;28;20095;-95
2021/09/27 06:56:13;;;;;;;25.90;11.88;;;;;;;22.33;82.34;98937.66;5102696;28;20040;-95
2021/09/27 06:58:39;;;;;;;33.10;12.10;;;;;;;22.08;82.75;98911.47;5101533;28;20044;-95
2021/09/27 07:01:07;;;;;;;32.05;11.98;;;;;;;22.07;82.86;98916.00;5101112;28;20047;-94
2021/09/27 07:03:33;;;;;;;28.48;11.48;;;;;;;22.05;83.24;98925.19;5103290;28;20102;-95
2021/09/27 07:05:59;;;;;;;30.45;12.70;;;;;;;22.04;83.88;98929.75;5103868;28;20066;-94
2021/09/27 07:08:25;;;;;;;34.22;12.18;;;;;;;21.89;84.12;98910.06;5104928;28;20439;-94
2021/09/27 07:10:53;;;;;;;29.10;12.05;;;;;;;21.94;83.35;98912.44;5105427;28;20366;-93
2021/09/27 07:13:19;;;;;;;29.20;12.65;;;;;;;22.03;82.77;98905.50;5104415;28;20039;-95
2021/09/27 07:15:46;;;;;;;31.10;12.73;;;;;;;22.17;81.52;98923.47;5101403;28;20051;-93
2021/09/27 07:18:13;;;;;;;29.45;12.75;;;;;;;22.33;80.36;98926.81;5102193;28;20082;-95
2021/09/27 07:20:40;;;;;;;33.65;12.95;;;;;;;22.56;78.92;98923.28;5096897;28;20078;-93
2021/09/27 07:23:06;;;;;;;27.92;13.07;;;;;;;23.05;77.40;98940.47;5096758;28;20103;-93
2021/09/27 07:25:34;;;;;;;31.13;13.20;;;;;;;23.10;78.39;98930.13;5098410;28;20123;-93
2021/09/27 07:28:00;;;;;;;29.38;12.20;;;;;;;23.31;77.14;98932.16;5099993;28;20047;-94
2021/09/27 07:30:27;;;;;;;27.65;13.18;;;;;;;23.49;76.16;98913.63;5095110;28;20049;-94
2021/09/27 07:32:54;;;;;;;28.90;12.63;;;;;;;23.65;76.30;98913.28;5098405;28;20039;-94
2021/09/27 07:35:25;;;;;;;31.85;13.57;;;;;;;23.93;74.92;98933.72;5096067;28;20437;-93
2021/09/27 07:37:51;;;;;;;26.92;11.90;;;;;;;24.04;73.73;98928.28;5097330;28;20040;-93
2021/09/27 07:40:20;;;;;;;27.70;12.52;;;;;;;24.02;74.18;98932.09;5095863;28;20174;-92
2021/09/27 07:42:46;;;;;;;38.25;14.30;;;;;;;24.03;73.46;98901.22;5096503;28;20503;-93
2021/09/27 07:45:14;;;;;;;33.03;13.50;;;;;;;24.53;71.93;98912.59;5094389;28;20036;-92
2021/09/27 07:47:39;;;;;;;23.90;12.93;;;;;;;24.43;71.14;98898.84;5098173;28;20051;-93
2021/09/27 07:50:07;;;;;;;26.15;13.27;;;;;;;24.62;70.83;98914.56;5098557;28;20277;-93
2021/09/27 07:52:35;;;;;;;28.65;12.68;;;;;;;24.62;70.99;98917.28;5097743;28;20055;-93
2021/09/27 07:55:01;;;;;;;28.70;12.55;;;;;;;24.48;70.49;98931.97;5098514;28;20043;-93
2021/09/27 07:57:27;;;;;;;25.88;12.20;;;;;;;24.32;71.55;98924.19;5097066;28;20573;-92
2021/09/27 07:59:53;;;;;;;25.63;11.90;;;;;;;24.27;71.15;98921.00;5097668;28;20126;-93
2021/09/27 08:02:19;;;;;;;30.10;12.18;;;;;;;24.16;71.80;98907.41;5094708;28;20122;-93
2021/09/27 08:04:48;;;;;;;28.58;13.63;;;;;;;23.93;72.75;98912.84;5096675;28;20032;-93
2021/09/27 08:07:15;;;;;;;31.30;13.55;;;;;;;23.83;73.16;98914.53;5095935;28;20063;-93
2021/09/27 08:09:42;;;;;;;29.50;12.65;;;;;;;24.45;71.25;98915.91;5095606;28;20036;-92
2021/09/27 08:12:08;;;;;;;26.67;12.73;;;;;;;25.13;68.69;98915.72;5094983;28;20085;-93
2021/09/27 08:14:34;;;;;;;29.65;12.05;;;;;;;25.73;65.09;98929.69;5096097;28;20486;-92
2021/09/27 08:17:00;;;;;;;23.75;11.98;;;;;;;25.86;63.21;98911.25;5095058;28;20048;-95
2021/09/27 08:19:26;;;;;;;24.05;11.40;;;;;;;25.58;63.63;98927.28;5097723;28;20052;-94
2021/09/27 08:21:52;;;;;;;24.67;11.15;;;;;;;25.41;63.65;98922.44;5098542;28;20048;-93
2021/09/27 08:24:21;;;;;;;30.08;11.77;;;;;;;25.47;63.50;98911.03;5098643;28;20386;-94
2021/09/27 08:26:48;;;;;;;20.63;10.98;;;;;;;25.25;62.00;98917.44;5099292;28;20036;-93
2021/09/27 08:29:14;;;;;;;23.45;11.15;;;;;;;24.94;61.90;98906.44;5096493;28;20044;-93
2021/09/27 08:31:41;;;;;;;22.15;11.38;;;;;;;25.52;61.16;98914.19;5094432;28;20036;-93
2021/09/27 08:34:07;;;;;;;31.00;10.88;;;;;;;25.87;57.18;98912.97;5098618;28;20453;-93
2021/09/27 08:36:34;;;;;;;22.80;11.15;;;;;;;26.16;55.92;98901.41;5096243;28;20036;-93
2021/09/27 08:39:01;;;;;;;20.08;11.20;;;;;;;26.58;55.86;98921.22;5097379;28;20044;-95
2021/09/27 08:41:31;;;;;;;22.55;10.90;;;;;;;26.51;56.42;98908.25;5097863;28;20401;-94
2021/09/27 08:44:21;;;;;;;22.27;10.75;;;;;;;26.28;55.63;98907.59;5097921;28;20440;-94
2021/09/27 08:46:51;;;;;;;24.50;10.93;;;;;;;26.38;56.48;98923.00;5095161;28;20036;-93
2021/09/27 08:49:27;;;;;;;24.58;12.00;;;;;;;26.35;57.73;98931.47;5095425;28;20094;-94
2021/09/27 08:51:54;;;;;;;21.38;11.68;;;;;;;26.12;56.74;98944.41;5097964;28;20044;-92
2021/09/27 08:54:24;;;;;;;24.90;11.48;;;;;;;26.02;58.23;98936.22;5097629;28;20047;-93
2021/09/27 08:56:58;;;;;;;20.05;11.02;;;;;;;25.75;60.53;98936.72;5098209;28;20040;-94
2021/09/27 08:59:40;;;;;;;26.25;11.48;;;;;;;26.05;60.29;98932.34;5097588;28;20059;-92
2021/09/27 09:02:16;;;;;;;27.42;11.75;;;;;;;26.25;59.72;98937.88;5096464;28;20054;-95
2021/09/27 09:04:48;;;;;;;20.67;11.27;;;;;;;26.17;60.21;98936.69;5096656;28;20047;-93
2021/09/27 09:07:18;;;;;;;20.63;11.27;;;;;;;26.16;59.60;98929.50;5095600;28;20032;-93
2021/09/27 09:09:48;;;;;;;28.45;11.95;;;;;;;26.05;60.36;98945.09;5094995;28;20497;-94
2021/09/27 09:12:21;;;;;;;25.30;11.30;;;;;;;25.85;59.47;98933.19;5096596;28;20040;-94
2021/09/27 09:14:58;;;;;;;25.10;11.88;;;;;;;25.81;60.29;98936.19;5095605;28;20036;-94
2021/09/27 09:17:31;;;;;;;22.60;11.23;;;;;;;26.40;59.06;98934.63;5092077;28;20093;-92
2021/09/27 09:19:58;;;;;;;29.67;11.52;;;;;;;26.72;58.69;98919.97;5096470;28;20069;-94
2021/09/27 09:22:28;;;;;;;22.17;11.15;;;;;;;27.00;58.61;98911.94;5096698;28;20043;-94
2021/09/27 09:24:56;;;;;;;24.40;12.00;;;;;;;27.31;57.28;98918.19;5097712;28;20040;-95
2021/09/27 09:27:24;;;;;;;29.33;12.38;;;;;;;27.29;56.55;98916.59;5098213;28;20043;-94
2021/09/27 09:29:52;;;;;;;26.40;12.50;;;;;;;27.09;55.21;98907.50;5096311;28;20036;-92
2021/09/27 09:32:22;;;;;;;26.40;12.35;;;;;;;26.78;55.78;98903.03;5093681;28;20121;-94
2021/09/27 09:34:52;;;;;;;23.17;12.13;;;;;;;27.09;54.91;98882.94;5095433;28;20044;-96
2021/09/27 09:37:35;;;;;;;24.23;11.88;;;;;;;27.49;55.38;98903.78;5095979;28;20043;-94
2021/09/27 09:40:06;;;;;;;25.20;12.02;;;;;;;27.32;55.67;98880.81;5094765;28;20397;-94
2021/09/27 09:42:34;;;;;;;27.25;12.60;;;;;;;27.84;55.19;98884.84;5093230;28;20046;-90
2021/09/27 09:45:16;;;;;;;24.42;11.63;;;;;;;28.25;53.35;98890.91;5096368;28;20041;-93
2021/09/27 09:47:43;;;;;;;20.70;10.63;;;;;;;28.28;53.25;98903.44;5096412;28;20505;-95
2021/09/27 09:50:12;;;;;;;26.30;11.18;;;;;;;28.25;54.05;98882.72;5096749;28;20051;-93
2021/09/27 09:52:41;;;;;;;22.35;11.23;;;;;;;28.35;52.18;98879.94;5098080;28;20044;-94
2021/09/27 09:55:20;;;;;;;21.80;10.15;;;;;;;28.35;52.78;98888.16;5097465;28;20093;-94
2021/09/27 09:57:56;;;;;;;23.90;10.57;;;;;;;28.47;53.41;98897.88;5095525;28;20119;-94
2021/09/27 10:00:38;;;;;;;21.85;10.07;;;;;;;28.44;52.12;98878.16;5091057;28;20047;-94
2021/09/27 10:03:06;;;;;;;17.95;10.05;;;;;;;28.47;51.72;98880.56;5095479;28;20036;-96
2021/09/27 10:05:37;;;;;;;25.50;10.15;;;;;;;28.58;50.17;98871.34;5092807;28;20449;-93
2021/09/27 10:08:05;;;;;;;24.75;9.57;;;;;;;28.35;50.15;98881.81;5092958;28;20044;-94
2021/09/27 10:10:34;;;;;;;25.80;10.40;;;;;;;28.31;50.58;98884.00;5096051;28;20552;-95
2021/09/27 10:13:02;;;;;;;23.95;10.23;;;;;;;28.69;48.67;98873.84;5095832;28;20040;-95
2021/09/27 10:15:43;;;;;;;26.35;10.40;;;;;;;28.95;47.19;98873.09;5091280;28;20134;-93
2021/09/27 10:18:21;;;;;;;20.00;9.43;;;;;;;28.99;45.91;98869.88;5088777;28;20052;-94
2021/09/27 10:20:59;;;;;;;23.52;10.02;;;;;;;28.47;46.34;98872.38;5096016;28;20089;-96
2021/09/27 10:23:30;;;;;;;24.83;10.65;;;;;;;28.74;44.40;98878.88;5093273;28;20048;-94
2021/09/27 10:26:11;;;;;;;29.20;10.55;;;;;;;28.98;44.18;98872.78;5093382;28;20066;-93
2021/09/27 10:28:40;;;;;;;32.58;15.98;;;;;;;29.31;45.01;98873.97;5086390;28;20105;-94
2021/09/27 10:31:14;;;;;;;32.97;14.40;;;;;;;29.52;45.11;98873.63;5092996;28;20032;-94
2021/09/27 10:33:46;;;;;;;34.53;13.82;;;;;;;29.21;46.74;98867.69;5094015;28;20086;-94
2021/09/27 10:36:18;;;;;;;45.33;20.00;;;;;;;29.17;47.49;98860.81;5093421;28;20064;-94
2021/09/27 10:38:48;;;;;;;23.35;9.80;;;;;;;29.14;46.95;98877.56;5097529;28;20040;-92
2021/09/27 10:41:18;;;;;;;22.45;11.07;;;;;;;28.75;46.73;98870.50;5097438;28;20040;-93
2021/09/27 10:43:45;;;;;;;20.63;10.82;;;;;;;28.64;46.91;98866.09;5099238;28;20070;-93
2021/09/27 10:46:16;;;;;;;23.52;11.88;;;;;;;28.87;47.32;98868.41;5097387;28;20040;-94
2021/09/27 10:48:49;;;;;;;22.98;10.75;;;;;;;28.83;46.67;98854.16;5098632;28;20118;-93
2021/09/27 10:51:16;;;;;;;28.10;11.02;;;;;;;29.02;46.91;98863.25;5097870;28;20047;-94
2021/09/27 10:53:46;;;;;;;20.38;10.82;;;;;;;29.21;46.06;98863.13;5098106;28;20048;-96
2021/09/27 10:56:22;;;;;;;24.67;10.90;;;;;;;29.10;46.28;98859.75;5097594;28;20043;-92
2021/09/27 10:58:54;;;;;;;28.30;11.30;;;;;;;29.12;45.79;98872.25;5097091;28;20076;-93
2021/09/27 11:01:50;;;;;;;26.35;11.35;;;;;;;28.75;47.06;98864.16;5097307;28;20494;-93
2021/09/27 11:04:20;;;;;;;23.63;11.00;;;;;;;28.64;46.86;98859.78;5078479;28;20047;-94
2021/09/27 11:06:51;;;;;;;23.35;10.27;;;;;;;28.59;47.24;98865.72;5098284;28;20040;-95
2021/09/27 11:09:30;;;;;;;26.55;11.38;;;;;;;28.41;48.48;98842.88;5098950;28;20044;-96
2021/09/27 11:12:01;;;;;;;24.80;10.50;;;;;;;28.66;48.05;98839.44;5098142;28;20059;-94
2021/09/27 11:14:40;;;;;;;25.95;10.73;;;;;;;28.41;48.68;98853.84;5098966;28;20044;-95
2021/09/27 11:17:24;;;;;;;28.02;10.05;;;;;;;28.16;48.86;98866.38;5097928;28;20071;-94
2021/09/27 11:20:05;;;;;;;22.17;11.07;;;;;;;27.66;50.20;98846.53;5099958;28;20044;-96
2021/09/27 11:22:40;;;;;;;24.80;10.45;;;;;;;28.18;49.36;98846.06;5099237;28;20071;-94
2021/09/27 11:25:33;;;;;;;30.38;10.70;;;;;;;28.11;49.33;98842.22;5099263;28;20051;-94
2021/09/27 11:28:39;;;;;;;25.67;10.43;;;;;;;28.26;49.66;98854.38;5097566;28;20036;-96
2021/09/27 11:31:18;;;;;;;27.92;11.07;;;;;;;28.54;48.96;98839.81;5033142;28;20060;-95
2021/09/27 11:33:50;;;;;;;26.10;10.50;;;;;;;28.86;47.23;98831.09;5038025;28;20049;-95
2021/09/27 11:36:33;;;;;;;27.92;10.23;;;;;;;28.46;49.13;98829.63;5039377;28;20045;-94
2021/09/27 11:39:23;;;;;;;25.15;9.75;;;;;;;28.94;48.54;98844.00;5041064;28;20121;-95
2021/09/27 11:42:09;;;;;;;26.38;9.55;;;;;;;28.78;48.92;98823.69;5041543;28;20036;-94
2021/09/27 11:44:51;;;;;;;23.75;9.20;;;;;;;28.47;48.98;98817.66;5040503;28;20072;-94
2021/09/27 11:47:30;;;;;;;24.05;9.50;;;;;;;28.76;48.99;98836.66;5039202;28;20042;-94
2021/09/27 11:53:04;;;;;;;28.35;10.57;;;;;;;28.23;50.04;98797.22;5119834;27;20392;-94
2021/09/27 11:55:36;;;;;;;26.20;10.57;;;;;;;28.08;49.62;98793.28;5126236;28;20496;-96